Flight Track Log - Related Links

Times and Time Zones

All times are in EDT time to prevent confusion due to time zone crossing. See the DAL268 flight status page for this flight to view local times or setup timezone preferences in your user account.


Time Position Orientation Groundspeed Altitude Reporting Facility
EDT Latitude Longitude Course Direction KTS MPH feet Rate Location/Type
Fri 09:18:33 PM 40.6320 -73.7790 180° South  Level FlightAware ADS-B
Fri 09:21:00 PM 40.4562 -73.4546 128° Southeast  Level FlightAware Approximate
Fri 09:22:00 PM 40.3686 -73.3113 131° Southeast  Level FlightAware Approximate
Fri 09:23:00 PM 40.2791 -73.1703 128° Southeast  Level FlightAware Approximate
Fri 09:25:32 PM 40.6320 -73.7800 128° Southeast  Level FlightAware ADS-B
Fri 09:31:00 PM 40.5000 -73.5418 90° East  Level FlightAware Approximate
Fri 09:31:24 PM 40.6340 -73.7770 90° East  Level FlightAware ADS-B
Fri 09:36:00 PM 40.4590 -73.4594 128° Southeast  Level FlightAware Approximate
Fri 09:36:12 PM 40.6340 -73.7770 128° Southeast  Level FlightAware ADS-B
Fri 09:38:00 PM 40.5006 -73.5506 143° Southeast  Level FlightAware Approximate
Fri 09:39:00 PM 40.4258 -73.4041 128° Southeast  Level FlightAware Approximate
Fri 09:46:00 PM 40.4778 -73.4908 128° Southeast  Level FlightAware Approximate
Fri 09:47:00 PM 40.3912 -73.3464 128° Southeast  Level FlightAware Approximate
Fri 09:47:52 PM 40.6310 -73.7730 128° Southeast  Level FlightAware ADS-B
Fri 09:48:00 PM 40.3006 -73.2064 128° Southeast  Level FlightAware Approximate
Fri 09:53:00 PM 40.4910 -73.5244 143° Southeast  Level FlightAware Approximate
Fri 09:59:28 PM 40.6380 -73.8050 300° West 175 201  Level FlightAware ADS-B
Fri 09:59:50 PM 40.6480 -73.8290 299° West 192 221 300 857 Climbing FlightAware ADS-B
Fri 09:59:56 PM 40.6490 -73.8360 281° West 198 228 400 1,543 Climbing FlightAware ADS-B
Fri 10:00:25 PM 40.6400 -73.8690 250° West 211 243 1,200 1,459 Climbing FlightAware ADS-B
Fri 10:00:33 PM 40.6350 -73.8770 231° Southwest 219 252 1,300 857 Climbing FlightAware ADS-B
Fri 10:00:39 PM 40.6290 -73.8830 217° Southwest 225 259 1,400 857 Climbing FlightAware ADS-B
Fri 10:00:54 PM 40.6150 -73.8890 198° South 235 270 1,600 947 Climbing FlightAware ADS-B
Fri 10:00:58 PM 40.6100 -73.8900 189° South 238 274 1,700 889 Climbing FlightAware ADS-B
Fri 10:01:21 PM 40.5850 -73.8800 163° South 248 285 2,000 968 Climbing FlightAware ADS-B
Fri 10:01:29 PM 40.5780 -73.8720 139° Southeast 250 288 2,200 1,000 Climbing FlightAware ADS-B
Fri 10:01:33 PM 40.5760 -73.8680 123° Southeast 250 288 2,200 1,385 Level FlightAware ADS-B
Fri 10:01:42 PM 40.5710 -73.8560 119° Southeast 251 289 2,500 1,800 Climbing FlightAware ADS-B
Fri 10:02:03 PM 40.5600 -73.8250 115° Southeast 265 305 3,100 1,756 Climbing FlightAware ADS-B
Fri 10:02:23 PM 40.5490 -73.7970 117° Southeast 273 314 3,700 2,000 Climbing FlightAware ADS-B
Fri 10:02:42 PM 40.5370 -73.7690 119° Southeast 277 319 4,400 2,118 Climbing FlightAware ADS-B
Fri 10:02:57 PM 40.5270 -73.7460 120° Southeast 282 325 4,900 2,057 Climbing FlightAware ADS-B
Fri 10:03:17 PM 40.5150 -73.7140 116° Southeast 289 333 5,600 2,348 Climbing FlightAware ADS-B
Fri 10:03:43 PM 40.5000 -73.6750 117° Southeast 289 333 6,700 2,043 Climbing FlightAware ADS-B
Fri 10:04:04 PM 40.4860 -73.6410 118° Southeast 302 348 7,200 1,756 Climbing FlightAware ADS-B
Fri 10:04:24 PM 40.4730 -73.6110 120° Southeast 302 348 7,900 2,250 Climbing FlightAware ADS-B
Fri 10:04:36 PM 40.4650 -73.5900 117° Southeast 303 349 8,400 2,182 Climbing FlightAware ADS-B
Fri 10:04:57 PM 40.4500 -73.5540 119° Southeast 308 354 9,100 2,045 Climbing FlightAware ADS-B
Fri 10:05:20 PM 40.4350 -73.5170 118° Southeast 314 361 9,900 1,393 Climbing FlightAware ADS-B
Fri 10:05:53 PM 40.4120 -73.4600 118° Southeast 340 391 10,400 896 Climbing FlightAware ADS-B
Fri 10:06:27 PM 40.3850 -73.3940 118° Southeast 368 423 10,900 882 Climbing FlightAware ADS-B
Fri 10:07:01 PM 40.3570 -73.3260 118° Southeast 396 456 11,400 1,286 Climbing FlightAware ADS-B
Fri 10:07:37 PM 40.3230 -73.2460 119° Southeast 415 478 12,400 1,853 Climbing FlightAware ADS-B
Fri 10:08:09 PM 40.2860 -73.1800 126° Southeast 423 487 13,500 1,950 Climbing FlightAware ADS-B
Fri 10:08:57 PM 40.2300 -73.0840 127° Southeast 435 501 15,000 2,051 Climbing FlightAware ADS-B
Fri 10:09:28 PM 40.1920 -73.0190 127° Southeast 440 506 16,200 2,298 Climbing FlightAware ADS-B
Fri 10:09:44 PM 40.1703 -72.9831 128° Southeast 441 507 16,800 2,125 Climbing FlightAware ADS-B (KSNC)
Fri 10:10:16 PM 40.1296 -72.9139 128° Southeast 444 511 17,900 1,969 Climbing FlightAware ADS-B (KSNC)
Fri 10:10:48 PM 40.0910 -72.8490 128° Southeast 448 516 18,900 1,636 Climbing FlightAware ADS-B
Fri 10:11:33 PM 40.0410 -72.7640 128° Southeast 455 524 20,000 1,600 Climbing FlightAware ADS-B
Fri 10:12:03 PM 39.9960 -72.6880 128° Southeast 461 531 20,900 1,754 Climbing FlightAware ADS-B
Fri 10:12:38 PM 39.9480 -72.6070 128° Southeast 467 537 21,900 1,520 Climbing FlightAware ADS-B
Fri 10:13:18 PM 39.8960 -72.5210 128° Southeast 473 544 22,800 1,385 Climbing FlightAware ADS-B
Fri 10:13:43 PM 39.8660 -72.4620 124° Southeast 474 545 23,400 1,286 Climbing FlightAware ADS-B
Fri 10:14:14 PM 39.8440 -72.3840 110° East 472 543 24,000 918 Climbing FlightAware ADS-B
Fri 10:15:08 PM 39.8240 -72.2380 100° East 472 543 24,700 467 Climbing FlightAware ADS-B
Fri 10:15:44 PM 39.8100 -72.1530 102° East 472 543 24,700 1,455 Level FlightAware ADS-B
Fri 10:16:14 PM 39.8330 -72.2970 282° West 472 543 26,300 1,412 Climbing FlightAware ADS-B
Fri 10:16:52 PM 39.8190 -72.2080 102° East 472 543 26,300 698 Level FlightAware ADS-B
Fri 10:17:40 PM 39.7810 -71.7860 97° East 503 579 27,300 714 Climbing FlightAware ADS-B
Fri 10:18:16 PM 39.7720 -71.6940 97° East 503 579 27,300  Level FlightAware ADS-B
Fri 10:18:52 PM 39.7630 -71.6020 97° East 503 579 27,300  Level FlightAware ADS-B
Fri 10:19:28 PM 39.7550 -71.5100 96° East 503 579 27,300  Level FlightAware ADS-B
Fri 10:20:05 PM 39.7460 -71.4160 97° East 503 579 27,300  Level FlightAware ADS-B
Fri 10:20:41 PM 39.7370 -71.3240 97° East 503 579 27,300 4,147 Level FlightAware ADS-B
Fri 10:21:13 PM 39.7033 -71.1542 97° East 499 574 32,000 3,613 Climbing New York Center
Fri 10:22:14 PM 39.6828 -70.9758 98° East 499 574 32,900 496 Climbing New York Center
Fri 10:23:14 PM 39.6603 -70.8006 99° East 499 574 33,000 50 Climbing New York Center
Fri 10:24:13 PM 39.6353 -70.6281 101° East 499 574 33,000  Level New York Center
Fri 10:25:12 PM 39.6142 -70.4475 99° East 499 574 33,000  Level New York Center
Fri 10:26:13 PM 39.5928 -70.2700 99° East 499 574 33,000  Level New York Center
Fri 10:27:13 PM 39.5689 -70.0922 100° East 504 580 33,000  Level New York Center
Fri 10:28:13 PM 39.5469 -69.9203 99° East 498 573 33,000  Level New York Center
Fri 10:29:12 PM 39.5228 -69.7456 100° East 498 573 33,000  Level New York Center
Fri 10:30:12 PM 39.5006 -69.5683 99° East 493 567 33,000  Level New York Center
Fri 10:31:14 PM 39.4736 -69.3911 101° East 493 567 33,000  Level New York Center
Fri 10:32:13 PM 39.4506 -69.2089 99° East 501 577 33,000  Level New York Center
Fri 10:33:13 PM 39.4253 -69.0400 101° East 501 577 33,000  Level New York Center
Fri 10:34:13 PM 39.3997 -68.8633 101° East 501 577 33,000  Level New York Center
Fri 10:35:12 PM 39.3742 -68.6919 101° East 501 577 33,000  Level New York Center
Fri 10:36:12 PM 39.3481 -68.5131 101° East 501 577 33,000  Level New York Center
Fri 10:37:14 PM 39.3217 -68.3367 101° East 501 577 33,000  Level New York Center
Fri 10:38:12 PM 39.2931 -68.1631 102° East 501 577 33,000  Level New York Center
Fri 10:39:13 PM 39.2681 -67.9817 100° East 506 582 33,000  Level New York Center
Fri 10:40:12 PM 39.2408 -67.8058 101° East 506 582 33,000  Level New York Center
Fri 10:41:12 PM 39.2136 -67.6300 101° East 506 582 33,000  Level New York Center
Fri 10:42:12 PM 39.1878 -67.4489 100° East 506 582 33,000  Level New York Center
Fri 10:43:13 PM 39.1600 -67.2708 101° East 506 582 33,000  Level New York Center
Fri 10:44:13 PM 39.1278 -67.0983 103° East 506 582 33,000  Level New York Center
Fri 10:46:12 PM 39.1167 -67.0000 78° East 533 613 33,000  Level New York Oceanic (ODAPS)
Fri 10:52:00 PM 39.3158 -65.6899 79° East 533 613 33,000  Level FlightAware Transoceanic
Fri 10:53:00 PM 39.3431 -65.5022 79° East 533 613 33,000  Level FlightAware Transoceanic
Fri 10:54:00 PM 39.3700 -65.3143 80° East 533 613 33,000  Level FlightAware Transoceanic
Fri 10:55:00 PM 39.3967 -65.1263 80° East 533 613 33,000  Level FlightAware Transoceanic
Fri 10:56:00 PM 39.4230 -64.9381 80° East 533 613 33,000  Level FlightAware Transoceanic
Fri 10:57:00 PM 39.4490 -64.7498 80° East 533 613 33,000  Level FlightAware Transoceanic
Fri 10:58:00 PM 39.4748 -64.5613 80° East 533 613 33,000  Level FlightAware Transoceanic
Fri 10:59:00 PM 39.5002 -64.3727 80° East 533 613 33,000  Level FlightAware Transoceanic
Fri 11:00:00 PM 39.5253 -64.1840 80° East 533 613 33,000  Level FlightAware Transoceanic
Fri 11:01:00 PM 39.5502 -63.9951 80° East 533 613 33,000  Level FlightAware Transoceanic
Fri 11:02:00 PM 39.5747 -63.8061 81° East 533 613 33,000  Level FlightAware Transoceanic
Fri 11:03:00 PM 39.5989 -63.6169 81° East 533 613 33,000  Level FlightAware Transoceanic
Fri 11:04:00 PM 39.6228 -63.4277 81° East 533 613 33,000  Level FlightAware Transoceanic
Fri 11:05:00 PM 39.6464 -63.2383 81° East 533 613 33,000  Level FlightAware Transoceanic
Fri 11:06:00 PM 39.6697 -63.0487 81° East 533 613 33,000  Level FlightAware Transoceanic
Fri 11:07:00 PM 39.6926 -62.8591 81° East 533 613 33,000  Level FlightAware Transoceanic
Fri 11:08:00 PM 39.7153 -62.6693 81° East 533 613 33,000  Level FlightAware Transoceanic
Fri 11:09:00 PM 39.7377 -62.4794 81° East 533 613 33,000  Level FlightAware Transoceanic
Fri 11:10:00 PM 39.7597 -62.2893 81° East 533 613 33,000  Level FlightAware Transoceanic
Fri 11:11:00 PM 39.7814 -62.0992 82° East 533 613 33,000  Level FlightAware Transoceanic
Fri 11:12:00 PM 39.8029 -61.9089 82° East 533 613 33,000  Level FlightAware Transoceanic
Fri 11:13:00 PM 39.8240 -61.7185 82° East 533 613 33,000  Level FlightAware Transoceanic
Fri 11:14:00 PM 39.8448 -61.5280 82° East 533 613 33,000  Level FlightAware Transoceanic
Fri 11:15:00 PM 39.8653 -61.3374 82° East 533 613 33,000  Level FlightAware Transoceanic
Fri 11:16:00 PM 39.8855 -61.1467 82° East 533 613 33,000  Level FlightAware Transoceanic
Fri 11:17:00 PM 39.9053 -60.9558 82° East 533 613 33,000  Level FlightAware Transoceanic
Fri 11:18:00 PM 39.9249 -60.7649 82° East 533 613 33,000  Level FlightAware Transoceanic
Fri 11:19:00 PM 39.9441 -60.5738 83° East 533 613 33,000  Level FlightAware Transoceanic
Fri 11:20:00 PM 39.9631 -60.3826 83° East 533 613 33,000  Level FlightAware Transoceanic
Fri 11:21:00 PM 39.9817 -60.1914 83° East 533 613 33,000  Level FlightAware Transoceanic
Fri 11:22:00 PM 40.0000 -60.0000 72° East 533 613 33,000  Level FlightAware Transoceanic
Fri 11:23:00 PM 40.0493 -59.8023 72° East 533 613 33,000  Level FlightAware Transoceanic
Fri 11:24:00 PM 40.0982 -59.6043 72° East 533 613 33,000  Level FlightAware Transoceanic
Fri 11:25:00 PM 40.1468 -59.4059 72° East 533 613 33,000  Level FlightAware Transoceanic
Fri 11:26:00 PM 40.1951 -59.2074 72° East 533 613 33,000  Level FlightAware Transoceanic
Fri 11:27:00 PM 40.2430 -59.0085 73° East 533 613 33,000  Level FlightAware Transoceanic
Fri 11:28:00 PM 40.2906 -58.8094 73° East 533 613 33,000  Level FlightAware Transoceanic
Fri 11:28:39 PM 40.0000 -60.0000 72° East 552 635 33,000  Level New York Oceanic (ODAPS)
Fri 11:29:00 PM 40.3378 -58.6099 73° East 533 613 33,000  Level FlightAware Transoceanic
Fri 11:30:00 PM 40.3847 -58.4102 73° East 533 613 33,000  Level FlightAware Transoceanic
Fri 11:31:00 PM 40.4313 -58.2103 73° East 533 613 33,000  Level FlightAware Transoceanic
Fri 11:32:00 PM 40.4775 -58.0100 73° East 533 613 33,000  Level FlightAware Transoceanic
Fri 11:33:00 PM 40.5234 -57.8095 73° East 533 613 33,000  Level FlightAware Transoceanic
Fri 11:34:00 PM 40.5475 -57.7032 73° East 552 635 33,000  Level FlightAware Transoceanic
Fri 11:35:00 PM 40.5911 -57.5101 74° East 552 635 33,000  Level FlightAware Transoceanic
Fri 11:36:00 PM 40.6343 -57.3168 74° East 552 635 33,000  Level FlightAware Transoceanic
Fri 11:37:00 PM 40.6772 -57.1232 74° East 552 635 33,000  Level FlightAware Transoceanic
Fri 11:38:00 PM 40.7198 -56.9294 74° East 552 635 33,000  Level FlightAware Transoceanic
Fri 11:39:00 PM 40.7621 -56.7354 74° East 552 635 33,000  Level FlightAware Transoceanic
Fri 11:40:00 PM 40.8041 -56.5411 74° East 552 635 33,000  Level FlightAware Transoceanic
Fri 11:41:00 PM 40.8457 -56.3465 74° East 552 635 33,000  Level FlightAware Transoceanic
Fri 11:42:00 PM 40.8870 -56.1517 74° East 552 635 33,000  Level FlightAware Transoceanic
Fri 11:43:00 PM 40.9279 -55.9567 75° East 552 635 33,000  Level FlightAware Transoceanic
Fri 11:44:00 PM 40.9686 -55.7614 75° East 552 635 33,000  Level FlightAware Transoceanic
Fri 11:45:00 PM 41.0089 -55.5659 75° East 552 635 33,000  Level FlightAware Transoceanic
Fri 11:46:00 PM 41.0488 -55.3701 75° East 552 635 33,000  Level FlightAware Transoceanic
Fri 11:47:00 PM 41.0885 -55.1741 75° East 552 635 33,000  Level FlightAware Transoceanic
Fri 11:48:00 PM 41.1278 -54.9779 75° East 552 635 33,000  Level FlightAware Transoceanic
Fri 11:49:00 PM 41.1668 -54.7814 75° East 552 635 33,000  Level FlightAware Transoceanic
Fri 11:50:00 PM 41.2054 -54.5848 75° East 552 635 33,000  Level FlightAware Transoceanic
Fri 11:51:00 PM 41.2437 -54.3878 76° East 552 635 33,000  Level FlightAware Transoceanic
Fri 11:52:00 PM 41.2817 -54.1907 76° East 552 635 33,000  Level FlightAware Transoceanic
Fri 11:53:00 PM 41.3193 -53.9933 76° East 552 635 33,000  Level FlightAware Transoceanic
Fri 11:54:00 PM 41.3566 -53.7957 76° East 552 635 33,000  Level FlightAware Transoceanic
Fri 11:55:00 PM 41.3936 -53.5978 76° East 552 635 33,000  Level FlightAware Transoceanic
Fri 11:56:00 PM 41.4302 -53.3998 76° East 552 635 33,000  Level FlightAware Transoceanic
Fri 11:57:00 PM 41.4664 -53.2015 76° East 552 635 33,000  Level FlightAware Transoceanic
Fri 11:58:00 PM 41.5024 -53.0030 76° East 552 635 33,000  Level FlightAware Transoceanic
Fri 11:59:00 PM 41.5380 -52.8043 77° East 552 635 33,000  Level FlightAware Transoceanic
Sat 12:00:00 AM 41.5732 -52.6053 77° East 552 635 33,000  Level FlightAware Transoceanic
Sat 12:01:00 AM 41.6081 -52.4062 77° East 552 635 33,000  Level FlightAware Transoceanic
Sat 12:02:00 AM 41.6427 -52.2068 77° East 552 635 33,000  Level FlightAware Transoceanic
Sat 12:03:00 AM 41.6769 -52.0072 77° East 552 635 33,000  Level FlightAware Transoceanic
Sat 12:04:00 AM 41.7108 -51.8074 77° East 552 635 33,000  Level FlightAware Transoceanic
Sat 12:05:00 AM 41.7443 -51.6074 77° East 552 635 33,000  Level FlightAware Transoceanic
Sat 12:06:00 AM 41.7775 -51.4072 78° East 552 635 33,000  Level FlightAware Transoceanic
Sat 12:07:00 AM 41.8103 -51.2068 78° East 552 635 33,000  Level FlightAware Transoceanic
Sat 12:08:00 AM 41.8428 -51.0061 78° East 552 635 33,000  Level FlightAware Transoceanic
Sat 12:09:00 AM 41.8750 -50.8053 78° East 552 635 33,000  Level FlightAware Transoceanic
Sat 12:10:00 AM 41.9067 -50.6043 78° East 552 635 33,000  Level FlightAware Transoceanic
Sat 12:11:00 AM 41.9382 -50.4030 78° East 552 635 33,000  Level FlightAware Transoceanic
Sat 12:12:00 AM 41.9693 -50.2016 78° East 552 635 33,000  Level FlightAware Transoceanic
Sat 12:13:00 AM 42.0000 -50.0000 71° East 552 635 33,000  Level FlightAware Transoceanic
Sat 12:14:00 AM 42.0537 -49.7852 71° East 552 635 33,000  Level FlightAware Transoceanic
Sat 12:15:00 AM 42.1070 -49.5700 72° East 552 635 33,000  Level FlightAware Transoceanic
Sat 12:15:35 AM 42.0000 -50.0000 71° East 594 684 33,000  Level New York Oceanic (ODAPS)
Sat 12:16:00 AM 42.1599 -49.3545 72° East 552 635 33,000  Level FlightAware Transoceanic
Sat 12:17:00 AM 42.2124 -49.1385 72° East 552 635 33,000  Level FlightAware Transoceanic
Sat 12:18:00 AM 42.2645 -48.9223 72° East 552 635 33,000  Level FlightAware Transoceanic
Sat 12:19:00 AM 42.3162 -48.7057 72° East 552 635 33,000  Level FlightAware Transoceanic
Sat 12:20:00 AM 42.3674 -48.4887 72° East 552 635 33,000  Level FlightAware Transoceanic
Sat 12:21:00 AM 42.4589 -48.0963 73° East 594 684 33,000  Level FlightAware Transoceanic
Sat 12:22:00 AM 42.5080 -47.8831 73° East 594 684 33,000  Level FlightAware Transoceanic
Sat 12:23:00 AM 42.5566 -47.6696 73° East 594 684 33,000  Level FlightAware Transoceanic
Sat 12:24:00 AM 42.6048 -47.4557 73° East 594 684 33,000  Level FlightAware Transoceanic
Sat 12:25:00 AM 42.6527 -47.2415 73° East 594 684 33,000  Level FlightAware Transoceanic
Sat 12:26:00 AM 42.7001 -47.0269 73° East 594 684 33,000  Level FlightAware Transoceanic
Sat 12:27:00 AM 42.7472 -46.8121 73° East 594 684 33,000  Level FlightAware Transoceanic
Sat 12:28:00 AM 42.7938 -46.5969 74° East 594 684 33,000  Level FlightAware Transoceanic
Sat 12:29:00 AM 42.8401 -46.3814 74° East 594 684 33,000  Level FlightAware Transoceanic
Sat 12:30:00 AM 42.8859 -46.1655 74° East 594 684 33,000  Level FlightAware Transoceanic
Sat 12:31:00 AM 42.9313 -45.9494 74° East 594 684 33,000  Level FlightAware Transoceanic
Sat 12:32:00 AM 42.9763 -45.7329 74° East 594 684 33,000  Level FlightAware Transoceanic
Sat 12:33:00 AM 43.0210 -45.5161 74° East 594 684 33,000  Level FlightAware Transoceanic
Sat 12:34:00 AM 43.0652 -45.2990 75° East 594 684 33,000  Level FlightAware Transoceanic
Sat 12:35:00 AM 43.1089 -45.0816 75° East 594 684 33,000  Level FlightAware Transoceanic
Sat 12:36:00 AM 43.1523 -44.8639 75° East 594 684 33,000  Level FlightAware Transoceanic
Sat 12:37:00 AM 43.1953 -44.6458 75° East 594 684 33,000  Level FlightAware Transoceanic
Sat 12:38:00 AM 43.2378 -44.4275 75° East 594 684 33,000  Level FlightAware Transoceanic
Sat 12:39:00 AM 43.2800 -44.2089 75° East 594 684 33,000  Level FlightAware Transoceanic
Sat 12:40:00 AM 43.3217 -43.9899 75° East 594 684 33,000  Level FlightAware Transoceanic
Sat 12:41:00 AM 43.3630 -43.7707 76° East 594 684 33,000  Level FlightAware Transoceanic
Sat 12:42:00 AM 43.4039 -43.5511 76° East 594 684 33,000  Level FlightAware Transoceanic
Sat 12:43:00 AM 43.4443 -43.3313 76° East 594 684 33,000  Level FlightAware Transoceanic
Sat 12:44:00 AM 43.4844 -43.1112 76° East 594 684 33,000  Level FlightAware Transoceanic
Sat 12:45:00 AM 43.5240 -42.8908 76° East 594 684 33,000  Level FlightAware Transoceanic
Sat 12:46:00 AM 43.5632 -42.6701 76° East 594 684 33,000  Level FlightAware Transoceanic
Sat 12:47:00 AM 43.6019 -42.4491 76° East 594 684 33,000  Level FlightAware Transoceanic
Sat 12:48:00 AM 43.6403 -42.2278 77° East 594 684 33,000  Level FlightAware Transoceanic
Sat 12:49:00 AM 43.6782 -42.0062 77° East 594 684 33,000  Level FlightAware Transoceanic
Sat 12:50:00 AM 43.7157 -41.7844 77° East 594 684 33,000  Level FlightAware Transoceanic
Sat 12:51:00 AM 43.7527 -41.5623 77° East 594 684 33,000  Level FlightAware Transoceanic
Sat 12:52:00 AM 43.7894 -41.3399 77° East 594 684 33,000  Level FlightAware Transoceanic
Sat 12:53:00 AM 43.8256 -41.1172 77° East 594 684 33,000  Level FlightAware Transoceanic
Sat 12:54:00 AM 43.8613 -40.8943 78° East 594 684 33,000  Level FlightAware Transoceanic
Sat 12:55:00 AM 43.8966 -40.6711 78° East 594 684 33,000  Level FlightAware Transoceanic
Sat 12:56:00 AM 43.9315 -40.4477 78° East 594 684 33,000  Level FlightAware Transoceanic
Sat 12:57:00 AM 43.9660 -40.2240 78° East 594 684 33,000  Level FlightAware Transoceanic
Sat 12:58:00 AM 44.0000 -40.0000 87° East 594 684 33,000  Level FlightAware Transoceanic
Sat 12:59:00 AM 44.0097 -39.7733 87° East 594 684 33,000  Level FlightAware Transoceanic
Sat 01:00:00 AM 44.0189 -39.5464 87° East 594 684 33,000  Level FlightAware Transoceanic
Sat 01:00:00 AM 44.0000 -40.0000 87° East 601 692 33,000  Level ETMS Enhanced Traffic Management System
Sat 01:01:00 AM 44.0277 -39.3195 87° East 594 684 33,000  Level FlightAware Transoceanic
Sat 01:02:00 AM 44.0361 -39.0926 87° East 594 684 33,000  Level FlightAware Transoceanic
Sat 01:03:00 AM 44.0439 -38.8656 87° East 594 684 33,000  Level FlightAware Transoceanic
Sat 01:04:00 AM 44.0514 -38.6385 87° East 594 684 33,000  Level FlightAware Transoceanic
Sat 01:05:00 AM 44.0584 -38.4113 88° East 594 684 33,000  Level FlightAware Transoceanic
Sat 01:06:00 AM 44.0649 -38.1842 88° East 594 684 33,000  Level FlightAware Transoceanic
Sat 01:07:00 AM 44.0722 -37.9093 88° East 601 692 33,000  Level FlightAware Transoceanic
Sat 01:08:00 AM 44.0779 -37.6768 88° East 601 692 33,000  Level FlightAware Transoceanic
Sat 01:09:00 AM 44.0831 -37.4441 88° East 601 692 33,000  Level FlightAware Transoceanic
Sat 01:10:00 AM 44.0878 -37.2115 88° East 601 692 33,000  Level FlightAware Transoceanic
Sat 01:11:00 AM 44.0921 -36.9788 89° East 601 692 33,000  Level FlightAware Transoceanic
Sat 01:12:00 AM 44.0959 -36.7461 89° East 601 692 33,000  Level FlightAware Transoceanic
Sat 01:13:00 AM 44.0992 -36.5133 89° East 601 692 33,000  Level FlightAware Transoceanic
Sat 01:14:00 AM 44.1020 -36.2805 89° East 601 692 33,000  Level FlightAware Transoceanic
Sat 01:15:00 AM 44.1044 -36.0477 89° East 601 692 33,000  Level FlightAware Transoceanic
Sat 01:16:00 AM 44.1063 -35.8149 89° East 601 692 33,000  Level FlightAware Transoceanic
Sat 01:17:00 AM 44.1077 -35.5821 90° East 601 692 33,000  Level FlightAware Transoceanic
Sat 01:18:00 AM 44.1086 -35.3493 90° East 601 692 33,000  Level FlightAware Transoceanic
Sat 01:19:00 AM 44.1091 -35.1164 90° East 601 692 33,000  Level FlightAware Transoceanic
Sat 01:20:00 AM 44.1091 -34.8836 90° East 601 692 33,000  Level FlightAware Transoceanic
Sat 01:21:00 AM 44.1086 -34.6507 90° East 601 692 33,000  Level FlightAware Transoceanic
Sat 01:22:00 AM 44.1077 -34.4179 90° East 601 692 33,000  Level FlightAware Transoceanic
Sat 01:23:00 AM 44.1063 -34.1851 91° East 601 692 33,000  Level FlightAware Transoceanic
Sat 01:24:00 AM 44.1044 -33.9523 91° East 601 692 33,000  Level FlightAware Transoceanic
Sat 01:25:00 AM 44.1020 -33.7195 91° East 601 692 33,000  Level FlightAware Transoceanic
Sat 01:26:00 AM 44.0992 -33.4867 91° East 601 692 33,000  Level FlightAware Transoceanic
Sat 01:27:00 AM 44.0959 -33.2539 91° East 601 692 33,000  Level FlightAware Transoceanic
Sat 01:28:00 AM 44.0921 -33.0212 91° East 601 692 33,000  Level FlightAware Transoceanic
Sat 01:29:00 AM 44.0878 -32.7885 92° East 601 692 33,000  Level FlightAware Transoceanic
Sat 01:30:00 AM 44.0831 -32.5559 92° East 601 692 33,000  Level FlightAware Transoceanic
Sat 01:31:00 AM 44.0779 -32.3232 92° East 601 692 33,000  Level FlightAware Transoceanic
Sat 01:32:00 AM 44.0722 -32.0907 92° East 601 692 33,000  Level FlightAware Transoceanic
Sat 01:33:00 AM 44.0661 -31.8581 92° East 601 692 33,000  Level FlightAware Transoceanic
Sat 01:34:00 AM 44.0595 -31.6257 92° East 601 692 33,000  Level FlightAware Transoceanic
Sat 01:35:00 AM 44.0524 -31.3932 93° East 601 692 33,000  Level FlightAware Transoceanic
Sat 01:36:00 AM 44.0448 -31.1609 93° East 601 692 33,000  Level FlightAware Transoceanic
Sat 01:37:00 AM 44.0368 -30.9286 93° East 601 692 33,000  Level FlightAware Transoceanic
Sat 01:38:00 AM 44.0283 -30.6963 93° East 601 692 33,000  Level FlightAware Transoceanic
Sat 01:39:00 AM 44.0193 -30.4641 93° East 601 692 33,000  Level FlightAware Transoceanic
Sat 01:40:00 AM 44.0099 -30.2320 93° East 601 692 33,000  Level FlightAware Transoceanic
Sat 01:41:00 AM 44.0000 -30.0000 87° East 601 692 33,000 12 Level FlightAware Transoceanic
Sat 01:42:00 AM 44.0247 -29.7973 80° East  Level Estimated
Sat 01:43:00 AM 44.0490 -29.5952 80° East  Level Estimated
Sat 01:44:00 AM 44.0729 -29.3929 81° East  Level Estimated
Sat 01:45:00 AM 44.0965 -29.1905 81° East  Level Estimated
Sat 01:46:00 AM 44.1197 -28.9879 81° East  Level Estimated
Sat 01:47:00 AM 44.1426 -28.7851 81° East  Level Estimated
Sat 01:48:00 AM 44.1651 -28.5822 81° East  Level Estimated
Sat 01:49:00 AM 44.1872 -28.3791 81° East  Level Estimated
Sat 01:50:00 AM 44.2090 -28.1759 81° East  Level Estimated
Sat 01:51:00 AM 44.2304 -27.9725 82° East  Level Estimated
Sat 01:52:00 AM 44.2514 -27.7690 82° East  Level Estimated
Sat 01:53:00 AM 44.2721 -27.5653 82° East  Level Estimated
Sat 01:54:00 AM 44.2924 -27.3615 82° East  Level Estimated
Sat 01:55:00 AM 44.3124 -27.1576 82° East  Level Estimated
Sat 01:56:00 AM 44.3320 -26.9535 82° East  Level Estimated
Sat 01:57:00 AM 44.3512 -26.7493 82° East  Level Estimated
Sat 01:58:00 AM 44.3701 -26.5449 83° East  Level Estimated
Sat 01:59:00 AM 44.3886 -26.3404 83° East  Level Estimated
Sat 02:00:00 AM 44.4068 -26.1358 83° East  Level Estimated
Sat 02:01:00 AM 44.4245 -25.9311 83° East  Level Estimated
Sat 02:02:00 AM 44.4420 -25.7262 83° East  Level Estimated
Sat 02:03:00 AM 44.4590 -25.5212 83° East  Level Estimated
Sat 02:04:00 AM 44.4757 -25.3161 83° East  Level Estimated
Sat 02:05:00 AM 44.4920 -25.1109 84° East  Level Estimated
Sat 02:06:00 AM 44.5079 -24.9056 84° East  Level Estimated
Sat 02:07:00 AM 44.5235 -24.7001 84° East  Level Estimated
Sat 02:08:00 AM 44.5387 -24.4946 84° East  Level Estimated
Sat 02:09:00 AM 44.5536 -24.2889 84° East  Level Estimated
Sat 02:10:00 AM 44.5680 -24.0832 84° East  Level Estimated
Sat 02:11:00 AM 44.5821 -23.8773 84° East  Level Estimated
Sat 02:12:00 AM 44.5959 -23.6714 85° East  Level Estimated
Sat 02:13:00 AM 44.6092 -23.4653 85° East  Level Estimated
Sat 02:14:00 AM 44.6222 -23.2591 85° East  Level Estimated
Sat 02:15:00 AM 44.6348 -23.0529 85° East  Level Estimated
Sat 02:16:00 AM 44.6471 -22.8466 85° East  Level Estimated
Sat 02:17:00 AM 44.6590 -22.6402 85° East  Level Estimated
Sat 02:18:00 AM 44.6705 -22.4337 85° East  Level Estimated
Sat 02:19:00 AM 44.6816 -22.2271 86° East  Level Estimated
Sat 02:20:00 AM 44.6924 -22.0204 86° East  Level Estimated
Sat 02:21:00 AM 44.7028 -21.8137 86° East  Level Estimated
Sat 02:22:00 AM 44.7128 -21.6069 86° East  Level Estimated
Sat 02:23:00 AM 44.7224 -21.4000 86° East  Level Estimated
Sat 02:24:00 AM 44.7317 -21.1931 86° East  Level Estimated
Sat 02:25:00 AM 44.7406 -20.9861 86° East  Level Estimated
Sat 02:26:00 AM 44.7491 -20.7790 87° East  Level Estimated
Sat 02:27:00 AM 44.7572 -20.5719 87° East  Level Estimated
Sat 02:28:00 AM 44.7650 -20.3647 87° East  Level Estimated
Sat 02:29:00 AM 44.7724 -20.1574 87° East  Level Estimated
Sat 02:30:00 AM 44.7794 -19.9505 87° East  Level Estimated
Sat 02:31:00 AM 44.7860 -19.7435 87° East  Level Estimated
Sat 02:32:00 AM 44.7923 -19.5365 87° East  Level Estimated
Sat 02:33:00 AM 44.7982 -19.3294 88° East  Level Estimated
Sat 02:34:00 AM 44.8037 -19.1223 88° East  Level Estimated
Sat 02:35:00 AM 44.8088 -18.9152 88° East  Level Estimated
Sat 02:36:00 AM 44.8136 -18.7080 88° East  Level Estimated
Sat 02:37:00 AM 44.8180 -18.5008 88° East  Level Estimated
Sat 02:38:00 AM 44.8220 -18.2935 88° East  Level Estimated
Sat 02:39:00 AM 44.8256 -18.0862 89° East  Level Estimated
Sat 02:40:00 AM 44.8289 -17.8789 89° East  Level Estimated
Sat 02:41:00 AM 44.8318 -17.6716 89° East  Level Estimated
Sat 02:42:00 AM 44.8343 -17.4643 89° East  Level Estimated
Sat 02:43:00 AM 44.8364 -17.2569 89° East  Level Estimated
Sat 02:44:00 AM 44.8382 -17.0495 89° East  Level Estimated
Sat 02:45:00 AM 44.8396 -16.8422 89° East  Level Estimated
Sat 02:46:00 AM 44.8406 -16.6348 90° East  Level Estimated
Sat 02:47:00 AM 44.8412 -16.4274 90° East  Level Estimated
Sat 02:48:00 AM 44.8415 -16.2200 90° East  Level Estimated
Sat 02:49:00 AM 44.8414 -16.0126 90° East  Level Estimated
Sat 02:50:00 AM 44.8409 -15.8052 90° East  Level Estimated
Sat 02:51:00 AM 44.8400 -15.5978 90° East  Level Estimated
Sat 02:52:00 AM 44.8388 -15.3904 90° East  Level Estimated
Sat 02:53:00 AM 44.8372 -15.1830 91° East  Level Estimated
Sat 02:54:00 AM 44.8352 -14.9756 91° East  Level Estimated
Sat 02:55:00 AM 44.8328 -14.7683 91° East  Level Estimated
Sat 02:56:00 AM 44.8301 -14.5610 91° East  Level Estimated
Sat 02:57:00 AM 44.8270 -14.3536 91° East  Level Estimated
Sat 02:58:00 AM 44.8235 -14.1463 91° East  Level Estimated
Sat 02:59:00 AM 44.8196 -13.9391 91° East  Level Estimated
Sat 03:00:00 AM 44.8154 -13.7319 92° East  Level Estimated
Sat 03:01:00 AM 44.8108 -13.5247 92° East  Level Estimated
Sat 03:02:00 AM 44.8058 -13.3175 92° East  Level Estimated
Sat 03:03:00 AM 44.8004 -13.1104 92° East  Level Estimated
Sat 03:04:00 AM 44.7947 -12.9033 92° East  Level Estimated
Sat 03:05:00 AM 44.7886 -12.6962 92° East  Level Estimated
Sat 03:06:00 AM 44.7821 -12.4892 92° East  Level Estimated
Sat 03:06:25 AM 43.3540 -11.6110 93° East 532 612 34,000  Level FlightAware ADS-B
Sat 03:07:00 AM 44.7752 -12.2823 93° East  Level Estimated
Sat 03:07:00 AM 43.3410 -11.4980 99° East 529 609 34,000  Level FlightAware ADS-B
Sat 03:07:44 AM 43.3270 -11.3820 99° East 529 609 34,000  Level FlightAware ADS-B
Sat 03:08:20 AM 43.3160 -11.2800 98° East 529 609 34,000  Level FlightAware ADS-B
Sat 03:08:50 AM 43.2980 -11.1390 100° East 516 594 34,000 81 Level FlightAware ADS-B
Sat 03:09:34 AM 43.2810 -10.9990 99° East 517 595 34,100 643 Climbing FlightAware ADS-B
Sat 03:10:14 AM 43.2640 -10.8620 100° East 520 598 34,900 943 Climbing FlightAware ADS-B
Sat 03:10:44 AM 43.2530 -10.7690 99° East 526 605 35,200 720 Climbing FlightAware ADS-B
Sat 03:11:04 AM 43.2440 -10.7020 100° East 527 606 35,500 686 Climbing FlightAware ADS-B
Sat 03:11:54 AM 43.2240 -10.5420 100° East 528 608 36,000 375 Climbing FlightAware ADS-B
Sat 03:12:24 AM 43.2120 -10.4470 100° East 526 605 36,000  Level FlightAware ADS-B
Sat 03:12:59 AM 43.1970 -10.3340 100° East 525 604 36,000  Level FlightAware ADS-B
Sat 03:13:39 AM 43.1790 -10.1890 100° East 524 603 36,000  Level FlightAware ADS-B
Sat 03:14:09 AM 43.1660 -10.0920 100° East 523 602 36,000  Level FlightAware ADS-B
Sat 03:14:44 AM 43.1520 -9.9810 100° East 523 602 36,000  Level FlightAware ADS-B
Sat 03:15:24 AM 43.1340 -9.8470 100° East 522 601 36,000  Level FlightAware ADS-B
Sat 03:15:59 AM 43.1190 -9.7350 100° East 519 597 36,000  Level FlightAware ADS-B
Sat 03:16:32 AM 43.1070 -9.6480 101° East 518 596 36,000  Level FlightAware ADS-B
Sat 03:17:04 AM 43.0910 -9.5250 100° East 518 596 36,000  Level FlightAware ADS-B
Sat 03:17:44 AM 43.0730 -9.3970 101° East 517 595 36,000  Level FlightAware ADS-B
Sat 03:18:19 AM 43.0580 -9.2870 101° East 518 596 36,000  Level FlightAware ADS-B
Sat 03:18:49 AM 43.0450 -9.1910 100° East 519 597 36,000  Level FlightAware ADS-B
Sat 03:19:24 AM 43.0290 -9.0760 101° East 518 596 36,000  Level FlightAware ADS-B
Sat 03:20:04 AM 43.0110 -8.9490 101° East 516 594 36,000  Level FlightAware ADS-B
Sat 03:20:39 AM 42.9950 -8.8350 101° East 514 592 36,000  Level FlightAware ADS-B
Sat 03:21:19 AM 42.9760 -8.7080 102° East 512 589 36,000  Level FlightAware ADS-B
Sat 03:21:54 AM 42.9600 -8.5970 101° East 512 589 36,000  Level FlightAware ADS-B
Sat 03:22:29 AM 42.9450 -8.4880 101° East 513 590 36,000  Level FlightAware ADS-B
Sat 03:23:04 AM 42.9340 -8.3830 98° East 513 590 36,000  Level FlightAware ADS-B
Sat 03:23:34 AM 42.9270 -8.2790 95° East 513 590 36,000  Level FlightAware ADS-B
Sat 03:24:29 AM 42.9180 -8.1060 94° East 513 590 36,000  Level FlightAware ADS-B
Sat 03:25:09 AM 42.9100 -7.9740 95° East 513 590 36,000  Level FlightAware ADS-B
Sat 03:25:44 AM 42.9030 -7.8620 95° East 514 592 36,000  Level FlightAware ADS-B
Sat 03:26:19 AM 42.8960 -7.7490 95° East 512 589 36,000  Level FlightAware ADS-B
Sat 03:26:54 AM 42.8880 -7.6350 95° East 511 588 36,000  Level FlightAware ADS-B
Sat 03:27:29 AM 42.8800 -7.5200 95° East 511 588 36,000  Level FlightAware ADS-B
Sat 03:28:05 AM 42.8720 -7.4110 96° East 510 587 36,000  Level FlightAware ADS-B
Sat 03:28:39 AM 42.8640 -7.2980 95° East 509 586 36,000  Level FlightAware ADS-B
Sat 03:29:14 AM 42.8560 -7.1870 96° East 509 586 36,000  Level FlightAware ADS-B
Sat 03:29:56 AM 42.8460 -7.0520 96° East 508 585 36,000  Level FlightAware ADS-B
Sat 03:30:31 AM 42.8380 -6.9430 96° East 508 585 36,000  Level FlightAware ADS-B
Sat 03:31:07 AM 42.8300 -6.8310 96° East 509 586 36,000  Level FlightAware ADS-B
Sat 03:31:41 AM 42.8210 -6.7190 96° East 510 587 36,000  Level FlightAware ADS-B
Sat 03:32:19 AM 42.8120 -6.5960 96° East 512 589 36,000  Level FlightAware ADS-B
Sat 03:32:49 AM 42.8040 -6.5010 97° East 512 589 36,000  Level FlightAware ADS-B
Sat 03:33:29 AM 42.7940 -6.3720 96° East 512 589 36,000  Level FlightAware ADS-B
Sat 03:33:59 AM 42.7860 -6.2740 96° East 514 592 36,000  Level FlightAware ADS-B
Sat 03:34:34 AM 42.7780 -6.1610 95° East 517 595 36,000  Level FlightAware ADS-B
Sat 03:35:14 AM 42.7670 -6.0330 97° East 518 596 36,000  Level FlightAware ADS-B
Sat 03:35:49 AM 42.7570 -5.9190 97° East 520 598 36,000  Level FlightAware ADS-B
Sat 03:36:19 AM 42.7490 -5.8230 96° East 522 601 36,000  Level FlightAware ADS-B
Sat 03:36:54 AM 42.7400 -5.7090 96° East 524 603 36,000  Level FlightAware ADS-B
Sat 03:37:34 AM 42.7280 -5.5760 97° East 526 605 36,000  Level FlightAware ADS-B
Sat 03:38:10 AM 42.7180 -5.4620 97° East 529 609 36,000  Level FlightAware ADS-B
Sat 03:38:40 AM 42.7090 -5.3630 97° East 530 610 36,000  Level FlightAware ADS-B
Sat 03:39:14 AM 42.7000 -5.2510 96° East 531 611 36,000  Level FlightAware ADS-B
Sat 03:39:54 AM 42.6870 -5.1150 97° East 532 612 36,000  Level FlightAware ADS-B
Sat 03:40:39 AM 42.6740 -4.9680 97° East 531 611 36,000  Level FlightAware ADS-B
Sat 03:41:14 AM 42.6630 -4.8540 97° East 532 612 36,000  Level FlightAware ADS-B
Sat 03:41:54 AM 42.6510 -4.7250 97° East 532 612 36,000  Level FlightAware ADS-B
Sat 03:42:24 AM 42.6410 -4.6200 97° East 531 611 36,000  Level FlightAware ADS-B
Sat 03:42:59 AM 42.6300 -4.5030 97° East 530 610 36,000  Level FlightAware ADS-B
Sat 03:43:39 AM 42.6170 -4.3710 98° East 529 609 36,000  Level FlightAware ADS-B
Sat 03:44:09 AM 42.6070 -4.2730 98° East 529 609 36,000  Level FlightAware ADS-B
Sat 03:44:44 AM 42.5970 -4.1730 98° East 528 608 36,000  Level FlightAware ADS-B
Sat 03:45:19 AM 42.5850 -4.0480 97° East 525 604 36,000  Level FlightAware ADS-B
Sat 03:45:59 AM 42.5720 -3.9250 98° East 523 602 36,000  Level FlightAware ADS-B
Sat 03:46:36 AM 42.5600 -3.8000 97° East 522 601 36,000  Level FlightAware ADS-B
Sat 03:47:11 AM 42.5480 -3.6840 98° East 521 600 36,000  Level FlightAware ADS-B
Sat 03:47:51 AM 42.5350 -3.5580 98° East 522 601 36,000  Level FlightAware ADS-B
Sat 03:48:31 AM 42.5200 -3.4220 98° East 523 602 36,000  Level FlightAware ADS-B
Sat 03:49:04 AM 42.5080 -3.3140 99° East 524 603 36,000  Level FlightAware ADS-B
Sat 03:49:39 AM 42.4970 -3.2050 98° East 525 604 36,000  Level FlightAware ADS-B
Sat 03:50:15 AM 42.4850 -3.0950 98° East 525 604 36,000  Level FlightAware ADS-B
Sat 03:50:45 AM 42.4730 -2.9840 98° East 526 605 36,000  Level FlightAware ADS-B
Sat 03:51:26 AM 42.4540 -2.8570 101° East 525 604 36,000  Level FlightAware ADS-B
Sat 03:52:06 AM 42.4300 -2.7380 105° East 525 604 36,000  Level FlightAware ADS-B
Sat 03:52:41 AM 42.4060 -2.6190 105° East 526 605 36,000  Level FlightAware ADS-B
Sat 03:53:16 AM 42.3840 -2.5140 106° East 525 604 36,000  Level FlightAware ADS-B
Sat 03:53:51 AM 42.3600 -2.3980 106° East 527 606 36,000  Level FlightAware ADS-B
Sat 03:54:26 AM 42.3360 -2.2840 106° East 528 608 36,000  Level FlightAware ADS-B
Sat 03:55:01 AM 42.3140 -2.1770 106° East 528 608 36,000  Level FlightAware ADS-B
Sat 03:55:36 AM 42.2900 -2.0660 106° East 529 609 36,000  Level FlightAware ADS-B
Sat 03:56:11 AM 42.2680 -1.9610 106° East 531 611 36,000  Level FlightAware ADS-B
Sat 03:56:43 AM 42.2440 -1.8500 106° East 532 612 36,000  Level FlightAware ADS-B
Sat 03:57:24 AM 42.2160 -1.7200 106° East 533 613 36,000  Level FlightAware ADS-B
Sat 03:57:56 AM 42.1930 -1.6120 106° East 533 613 36,000  Level FlightAware ADS-B
Sat 03:58:33 AM 42.1680 -1.4980 106° East 534 615 36,000  Level FlightAware ADS-B
Sat 03:59:06 AM 42.1450 -1.3920 106° East 535 616 36,000  Level FlightAware ADS-B
Sat 03:59:42 AM 42.1190 -1.2750 107° East 538 619 36,000  Level FlightAware ADS-B
Sat 04:00:20 AM 42.0930 -1.1560 106° East 542 624 36,000  Level FlightAware ADS-B
Sat 04:00:52 AM 42.0710 -1.0530 106° East 541 623 36,000  Level FlightAware ADS-B
Sat 04:01:27 AM 42.0450 -0.9380 107° East 541 623 36,000  Level FlightAware ADS-B
Sat 04:02:03 AM 42.0180 -0.8190 107° East 542 624 36,000  Level FlightAware ADS-B
Sat 04:02:38 AM 41.9940 -0.7090 106° East 543 625 36,000  Level FlightAware ADS-B
Sat 04:03:06 AM 41.9730 -0.6160 107° East 542 624 36,000  Level FlightAware ADS-B
Sat 04:03:41 AM 41.9470 -0.5050 107° East 542 624 36,000  Level FlightAware ADS-B
Sat 04:04:18 AM 41.9200 -0.3850 107° East 541 623 36,000  Level FlightAware ADS-B
Sat 04:04:53 AM 41.8950 -0.2750 107° East 540 621 36,000  Level FlightAware ADS-B
Sat 04:05:11 AM 41.8820 -0.2170 107° East 539 620  Descending FlightAware ADS-B
Sat 04:05:48 AM 41.8540 -0.0960 107° East 538 619 36,000 30,423 Climbing FlightAware ADS-B
Sat 04:06:22 AM 41.8300 0.0070 107° East 537 618 36,000  Level FlightAware ADS-B
Sat 04:06:58 AM 41.8020 0.1240 108° East 536 617 36,000  Level FlightAware ADS-B
Sat 04:07:35 AM 41.7750 0.2390 107° East 535 616 36,000  Level FlightAware ADS-B
Sat 04:08:07 AM 41.7510 0.3430 107° East 533 613 36,000  Level FlightAware ADS-B
Sat 04:08:27 AM 41.7779 0.2287 288° West 534 615 36,000  Level FlightAware ADS-B (YBCS / CNS)
Sat 04:09:15 AM 41.7000 0.5570 108° East 534 615 36,000  Level FlightAware ADS-B
Sat 04:09:26 AM 41.6927 0.5885 107° East 534 615 36,000  Level FlightAware ADS-B (YBCS / CNS)
Sat 04:09:59 AM 41.6668 0.6959 108° East 532 612 36,000  Level FlightAware ADS-B (YBCS / CNS)
Sat 04:10:29 AM 41.6434 0.7871 109° East 530 610 36,000  Level FlightAware ADS-B (YBCS / CNS)
Sat 04:11:09 AM 41.6104 0.9120 109° East 530 610 36,000  Level FlightAware ADS-B (YBCS / CNS)
Sat 04:11:39 AM 41.5867 1.0019 109° East 530 610 36,000  Level FlightAware ADS-B (YBCS / CNS)
Sat 04:12:09 AM 41.5621 1.0957 109° East 531 611 36,000  Level FlightAware ADS-B (YBCS / CNS)
Sat 04:12:49 AM 41.5316 1.2202 108° East 536 617 36,000  Level FlightAware ADS-B (YBCS / CNS)
Sat 04:13:19 AM 41.5102 1.3164 107° East 536 617 36,000  Level FlightAware ADS-B (YBCS / CNS)
Sat 04:13:49 AM 41.4887 1.4118 107° East 536 617 36,000  Level FlightAware ADS-B (YBCS / CNS)
Sat 04:14:20 AM 41.4668 1.5080 107° East 536 617 36,000  Level FlightAware ADS-B (YBCS / CNS)
Sat 04:14:50 AM 41.4445 1.6039 107° East 535 616 36,000  Level FlightAware ADS-B (YBCS / CNS)
Sat 04:15:20 AM 41.4228 1.6963 107° East 534 615 36,000  Level FlightAware ADS-B (YBCS / CNS)
Sat 04:15:50 AM 41.3988 1.7915 109° East 532 612 36,000  Level FlightAware ADS-B (YBCS / CNS)
Sat 04:16:22 AM 41.3749 1.8848 109° East 533 613 36,000  Level FlightAware ADS-B (YBCS / CNS)
Sat 04:16:58 AM 41.3450 2.0010 109° East 533 613 36,000  Level FlightAware ADS-B
Sat 04:17:19 AM 41.3290 2.0677 108° East 534 615 36,000  Level FlightAware ADS-B (YBCS / CNS)
Sat 04:18:10 AM 41.2980 2.2270 104° East 538 619 36,000  Level FlightAware ADS-B
Sat 04:18:47 AM 41.2790 2.3480 102° East 538 619 36,000  Level FlightAware ADS-B
Sat 04:19:23 AM 41.2610 2.4630 102° East 537 618 36,000  Level FlightAware ADS-B
Sat 04:19:53 AM 41.2470 2.5630 101° East 537 618 36,000 -90 Level FlightAware ADS-B
Sat 04:20:30 AM 41.2270 2.6810 103° East 534 615 35,900 -86 Descending FlightAware ADS-B
Sat 04:21:03 AM 41.2080 2.7860 103° East 533 613 35,900  Level FlightAware ADS-B
Sat 04:21:41 AM 41.1870 2.9020 103° East 530 610 35,900  Level FlightAware ADS-B
Sat 04:22:17 AM 41.1660 3.0210 103° East 530 610 35,900  Level FlightAware ADS-B
Sat 04:22:52 AM 41.1480 3.1260 103° East 529 609 35,900  Level FlightAware ADS-B
Sat 04:23:23 AM 41.1340 3.2110 102° East 528 608 35,900  Level FlightAware ADS-B
Sat 04:24:01 AM 41.1110 3.3440 103° East 528 608 35,900  Level FlightAware ADS-B
Sat 04:24:42 AM 41.0920 3.4600 102° East 528 608 35,900  Level FlightAware ADS-B
Sat 04:25:19 AM 41.0680 3.5930 103° East 530 610 35,900  Level FlightAware ADS-B
Sat 04:25:52 AM 41.0520 3.6850 103° East 530 610 35,900  Level FlightAware ADS-B
Sat 04:26:28 AM 41.0350 3.7820 103° East 530 610 35,900  Level FlightAware ADS-B
Sat 04:27:04 AM 41.0180 3.8790 103° East 530 610 35,900  Level FlightAware ADS-B
Sat 04:27:40 AM 41.0010 3.9760 103° East 530 610 35,900  Level FlightAware ADS-B
Sat 04:28:16 AM 40.9840 4.0730 103° East 530 610 35,900  Level FlightAware ADS-B
Sat 04:28:59 AM 40.9480 4.2580 104° East 533 613 35,900  Level FlightAware ADS-B
Sat 04:29:36 AM 40.9300 4.3580 103° East 533 613 35,900  Level FlightAware ADS-B
Sat 04:30:08 AM 40.9020 4.5070 104° East 533 613 35,900  Level FlightAware ADS-B
Sat 04:30:48 AM 40.8830 4.6150 103° East 533 613 35,900  Level FlightAware ADS-B
Sat 04:31:24 AM 40.8660 4.7120 103° East 533 613 35,900  Level FlightAware ADS-B
Sat 04:32:00 AM 40.8490 4.8090 103° East 533 613 35,900  Level FlightAware ADS-B
Sat 04:32:37 AM 40.8310 4.9090 103° East 533 613 35,900  Level FlightAware ADS-B
Sat 04:33:13 AM 40.8140 5.0060 103° East 533 613 35,900  Level FlightAware ADS-B
Sat 04:33:47 AM 40.7980 5.0980 103° East 533 613 35,900  Level FlightAware ADS-B
Sat 04:34:23 AM 40.7810 5.1950 103° East 533 613 35,900  Level FlightAware ADS-B
Sat 04:34:59 AM 40.7640 5.2920 103° East 533 613 35,900  Level FlightAware ADS-B
Sat 04:35:35 AM 40.7470 5.3890 103° East 533 613 35,900  Level FlightAware ADS-B
Sat 04:35:38 AM 40.8220 5.5860 63° Northeast 35,900  Level FlightAware ADS-B
Sat 04:35:58 AM 40.8180 5.6550 94° East 543 625 35,900  Level FlightAware ADS-B
Sat 04:36:28 AM 40.8120 5.7490 95° East 543 625 35,900  Level FlightAware ADS-B
Sat 04:37:03 AM 40.8050 5.8670 94° East 543 625 35,900  Level FlightAware ADS-B
Sat 04:37:43 AM 40.7970 6.0000 94° East 542 624 35,900  Level FlightAware ADS-B
Sat 04:38:14 AM 40.7910 6.0970 95° East 541 623 35,900  Level FlightAware ADS-B
Sat 04:39:14 AM 40.7800 6.2900 94° East 540 621 35,900  Level FlightAware ADS-B
Sat 04:39:44 AM 40.7730 6.3990 95° East 539 620 35,900  Level FlightAware ADS-B
Sat 04:40:19 AM 40.7670 6.5110 94° East 537 618 35,900  Level FlightAware ADS-B
Sat 04:40:54 AM 40.7600 6.6170 95° East 536 617 35,900  Level FlightAware ADS-B
Sat 04:41:28 AM 40.7520 6.7390 95° East 533 613 35,900  Level FlightAware ADS-B
Sat 04:42:04 AM 40.7450 6.8540 95° East 529 609 35,900  Level FlightAware ADS-B
Sat 04:42:44 AM 40.7370 6.9760 95° East 528 608 35,900  Level FlightAware ADS-B
Sat 04:43:14 AM 40.7290 7.0760 96° East 525 604 35,900  Level FlightAware ADS-B
Sat 04:43:49 AM 40.7120 7.1890 101° East 521 600 35,900  Level FlightAware ADS-B
Sat 04:44:24 AM 40.6940 7.2950 103° East 516 594 35,900  Level FlightAware ADS-B
Sat 04:45:04 AM 40.6750 7.4150 102° East 517 595 35,900 86 Level FlightAware ADS-B
Sat 04:45:34 AM 40.6610 7.5100 101° East 514 592 36,000 727 Climbing FlightAware ADS-B
Sat 04:46:10 AM 40.6430 7.6200 102° East 515 593 36,700 771 Climbing FlightAware ADS-B
Sat 04:46:44 AM 40.6250 7.7230 103° East 516 594 36,900 171 Climbing FlightAware ADS-B
Sat 04:47:20 AM 40.6060 7.8340 103° East 515 593 36,900  Level FlightAware ADS-B
Sat 04:47:54 AM 40.5890 7.9390 102° East 513 590 36,900  Level FlightAware ADS-B
Sat 04:48:29 AM 40.5700 8.0470 103° East 512 589 36,900  Level FlightAware ADS-B
Sat 04:49:09 AM 40.5500 8.1660 102° East 511 588 36,900  Level FlightAware ADS-B
Sat 04:49:39 AM 40.5340 8.2580 103° East 511 588 36,900  Level FlightAware ADS-B
Sat 04:50:14 AM 40.5160 8.3640 103° East 513 590 36,900  Level FlightAware ADS-B
Sat 04:50:50 AM 40.4970 8.4710 103° East 513 590 36,900  Level FlightAware ADS-B
Sat 04:51:24 AM 40.4780 8.5760 103° East 514 592 36,900  Level FlightAware ADS-B
Sat 04:52:00 AM 40.4600 8.6810 103° East 514 592 36,900  Level FlightAware ADS-B
Sat 04:52:34 AM 40.4400 8.7880 104° East 513 590 36,900  Level FlightAware ADS-B
Sat 04:53:14 AM 40.4180 8.9110 103° East 514 592 36,900  Level FlightAware ADS-B
Sat 04:53:44 AM 40.4020 8.9990 103° East 514 592 36,900  Level FlightAware ADS-B
Sat 04:54:19 AM 40.3820 9.1070 104° East 512 589 36,900  Level FlightAware ADS-B
Sat 04:54:54 AM 40.3630 9.2120 103° East 513 590 36,900  Level FlightAware ADS-B
Sat 04:55:29 AM 40.3430 9.3200 104° East 514 592 36,900  Level FlightAware ADS-B
Sat 04:56:04 AM 40.3240 9.4240 103° East 514 592 36,900  Level FlightAware ADS-B
Sat 04:56:39 AM 40.3040 9.5320 104° East 514 592 36,900  Level FlightAware ADS-B
Sat 04:57:19 AM 40.2810 9.6520 104° East 514 592 36,900  Level FlightAware ADS-B
Sat 04:57:51 AM 40.2640 9.7440 104° East 515 593 36,900  Level FlightAware ADS-B
Sat 04:58:25 AM 40.2440 9.8530 103° East 515 593 36,900  Level FlightAware ADS-B
Sat 04:59:00 AM 40.2230 9.9590 105° East 515 593 36,900  Level FlightAware ADS-B
Sat 04:59:36 AM 40.2030 10.0660 104° East 515 593 36,900  Level FlightAware ADS-B
Sat 05:00:16 AM 40.1790 10.1900 104° East 514 592 36,900  Level FlightAware ADS-B
Sat 05:00:52 AM 40.1590 10.2970 104° East 516 594 36,900  Level FlightAware ADS-B
Sat 05:01:27 AM 40.1370 10.4040 105° East 515 593 36,900  Level FlightAware ADS-B
Sat 05:02:02 AM 40.1170 10.5080 104° East 513 590 36,900  Level FlightAware ADS-B
Sat 05:02:37 AM 40.0960 10.6140 104° East 513 590 36,900  Level FlightAware ADS-B
Sat 05:03:13 AM 40.0750 10.7210 104° East 512 589 36,900  Level FlightAware ADS-B
Sat 05:03:48 AM 40.0540 10.8270 104° East 512 589 36,900  Level FlightAware ADS-B
Sat 05:04:23 AM 40.0330 10.9300 105° East 513 590 36,900  Level FlightAware ADS-B
Sat 05:04:58 AM 40.0120 11.0370 104° East 513 590 36,900  Level FlightAware ADS-B
Sat 05:05:32 AM 39.9910 11.1400 105° East 514 592 36,900  Level FlightAware ADS-B
Sat 05:06:08 AM 39.9710 11.2410 104° East 514 592 36,900  Level FlightAware ADS-B
Sat 05:06:43 AM 39.9480 11.3510 105° East 516 594 36,900  Level FlightAware ADS-B
Sat 05:07:18 AM 39.9270 11.4560 105° East 517 595 36,900  Level FlightAware ADS-B
Sat 05:07:57 AM 39.9020 11.5750 105° East 517 595 36,900  Level FlightAware ADS-B
Sat 05:08:35 AM 39.8790 11.6880 105° East 518 596 36,900  Level FlightAware ADS-B
Sat 05:09:10 AM 39.8560 11.7970 105° East 518 596 36,900  Level FlightAware ADS-B
Sat 05:09:48 AM 39.8340 11.9060 105° East 520 598 36,900  Level FlightAware ADS-B
Sat 05:10:35 AM 39.8030 12.0510 106° East 518 596 36,900  Level FlightAware ADS-B
Sat 05:11:11 AM 39.7800 12.1600 105° East 520 598 36,900  Level FlightAware ADS-B
Sat 05:11:56 AM 39.7540 12.2810 106° East 522 601 36,900  Level FlightAware ADS-B
Sat 05:12:30 AM 39.7290 12.4000 105° East 524 603 36,900  Level FlightAware ADS-B
Sat 05:13:08 AM 39.7040 12.5140 106° East 524 603 36,900  Level FlightAware ADS-B
Sat 05:13:36 AM 39.6890 12.5840 106° East 521 600 36,900  Level FlightAware ADS-B
Sat 05:14:19 AM 39.6580 12.7300 105° East 524 603 36,900  Level FlightAware ADS-B
Sat 05:14:55 AM 39.6340 12.8390 106° East 524 603 36,900  Level FlightAware ADS-B
Sat 05:15:31 AM 39.6100 12.9470 106° East 524 603 36,900  Level FlightAware ADS-B
Sat 05:16:03 AM 39.5890 13.0440 106° East 523 602 36,900  Level FlightAware ADS-B
Sat 05:16:37 AM 39.5660 13.1480 106° East 524 603 36,900  Level FlightAware ADS-B
Sat 05:17:15 AM 39.5400 13.2620 106° East 524 603 36,900  Level FlightAware ADS-B
Sat 05:17:47 AM 39.5190 13.3590 106° East 523 602 36,900  Level FlightAware ADS-B
Sat 05:18:19 AM 39.4980 13.4540 106° East 523 602 36,900  Level FlightAware ADS-B
Sat 05:18:59 AM 39.4700 13.5750 107° East 523 602 36,900  Level FlightAware ADS-B
Sat 05:19:35 AM 39.4460 13.6820 106° East 524 603 36,900  Level FlightAware ADS-B
Sat 05:20:08 AM 39.4240 13.7800 106° East 524 603 36,900  Level FlightAware ADS-B
Sat 05:20:43 AM 39.3990 13.8890 106° East 523 602 36,900  Level FlightAware ADS-B
Sat 05:21:19 AM 39.3750 13.9960 106° East 523 602 36,900  Level FlightAware ADS-B
Sat 05:21:51 AM 39.3530 14.0920 106° East 524 603 36,900  Level FlightAware ADS-B
Sat 05:22:29 AM 39.3260 14.2070 107° East 524 603 36,900  Level FlightAware ADS-B
Sat 05:23:05 AM 39.3090 14.3110 102° East 523 602 36,900  Level FlightAware ADS-B
Sat 05:23:43 AM 39.2990 14.4150 97° East 523 602 36,900  Level FlightAware ADS-B
Sat 05:24:25 AM 39.2850 14.5600 97° East 522 601 36,900  Level FlightAware ADS-B
Sat 05:25:01 AM 39.2740 14.6730 97° East 522 601 36,900  Level FlightAware ADS-B
Sat 05:25:38 AM 39.2620 14.7860 98° East 522 601 36,900  Level FlightAware ADS-B
Sat 05:26:12 AM 39.2520 14.8920 97° East 522 601 36,900  Level FlightAware ADS-B
Sat 05:26:46 AM 39.2410 14.9960 98° East 521 600 36,900  Level FlightAware ADS-B
Sat 05:27:20 AM 39.2300 15.0990 98° East 519 597 36,900  Level FlightAware ADS-B
Sat 05:27:58 AM 39.2180 15.2120 98° East 519 597 36,900  Level FlightAware ADS-B
Sat 05:28:34 AM 39.2060 15.3280 98° East 519 597 36,900  Level FlightAware ADS-B
Sat 05:29:12 AM 39.1930 15.4450 98° East 519 597 36,900  Level FlightAware ADS-B
Sat 05:29:52 AM 39.1810 15.5660 97° East 519 597 36,900  Level FlightAware ADS-B
Sat 05:30:26 AM 39.1690 15.6710 98° East 519 597 36,900  Level FlightAware ADS-B
Sat 05:31:02 AM 39.1570 15.7800 98° East 522 601 36,900  Level FlightAware ADS-B
Sat 05:31:34 AM 39.1460 15.8810 98° East 522 601 36,900  Level FlightAware ADS-B
Sat 05:32:10 AM 39.1340 15.9870 98° East 522 601 36,900  Level FlightAware ADS-B
Sat 05:32:45 AM 39.1220 16.0960 98° East 522 601 36,900  Level FlightAware ADS-B
Sat 05:33:17 AM 39.1110 16.1960 98° East 521 600 36,900  Level FlightAware ADS-B
Sat 05:33:50 AM 39.0990 16.2970 99° East 520 598 36,900  Level FlightAware ADS-B
Sat 05:34:22 AM 39.0880 16.3960 98° East 519 597 36,900  Level FlightAware ADS-B
Sat 05:34:56 AM 39.0740 16.4950 100° East 519 597 36,900  Level FlightAware ADS-B
Sat 05:35:35 AM 39.0500 16.6160 104° East 518 596 36,900  Level FlightAware ADS-B
Sat 05:36:05 AM 39.0320 16.7060 104° East 517 595 36,900  Level FlightAware ADS-B
Sat 05:36:43 AM 39.0090 16.8180 105° East 516 594 36,900  Level FlightAware ADS-B
Sat 05:37:21 AM 38.9850 16.9300 105° East 515 593 36,900  Level FlightAware ADS-B
Sat 05:37:53 AM 38.9650 17.0260 105° East 515 593 36,900  Level FlightAware ADS-B
Sat 05:38:29 AM 38.9430 17.1310 105° East 515 593 36,900  Level FlightAware ADS-B
Sat 05:39:05 AM 38.9200 17.2380 105° East 515 593 36,900  Level FlightAware ADS-B
Sat 05:39:35 AM 38.9010 17.3270 105° East 516 594 36,900  Level FlightAware ADS-B
Sat 05:40:13 AM 38.8780 17.4380 105° East 516 594 36,900  Level FlightAware ADS-B
Sat 05:40:49 AM 38.8550 17.5440 106° East 516 594 36,900  Level FlightAware ADS-B
Sat 05:41:24 AM 38.8330 17.6460 105° East 516 594 36,900  Level FlightAware ADS-B
Sat 05:41:58 AM 38.8110 17.7470 106° East 516 594 36,900  Level FlightAware ADS-B
Sat 05:42:34 AM 38.7880 17.8520 106° East 515 593 36,900  Level FlightAware ADS-B
Sat 05:43:10 AM 38.7650 17.9570 106° East 512 589 36,900  Level FlightAware ADS-B
Sat 05:43:41 AM 38.7450 18.0470 106° East 510 587 36,900  Level FlightAware ADS-B
Sat 05:44:19 AM 38.7200 18.1600 106° East 510 587 36,900  Level FlightAware ADS-B
Sat 05:44:53 AM 38.6980 18.2590 106° East 510 587 36,900  Level FlightAware ADS-B
Sat 05:45:31 AM 38.6740 18.3690 106° East 510 587 36,900  Level FlightAware ADS-B
Sat 05:46:02 AM 38.6540 18.4580 106° East 509 586 36,900  Level FlightAware ADS-B
Sat 05:46:39 AM 38.6300 18.5640 106° East 510 587 36,900  Level FlightAware ADS-B
Sat 05:47:15 AM 38.6060 18.6710 106° East 510 587 36,900  Level FlightAware ADS-B
Sat 05:47:51 AM 38.5820 18.7730 107° East 510 587 36,900  Level FlightAware ADS-B
Sat 05:48:23 AM 38.5570 18.8650 109° East 510 587 36,900  Level FlightAware ADS-B
Sat 05:49:06 AM 38.5260 18.9740 110° East 509 586 36,900  Level FlightAware ADS-B
Sat 05:49:43 AM 38.4920 19.0890 111° Southeast 511 588 36,900  Level FlightAware ADS-B
Sat 05:50:21 AM 38.4660 19.1800 110° East 511 588 36,900  Level FlightAware ADS-B
Sat 05:50:58 AM 38.4370 19.2740 111° Southeast 512 589 36,900  Level FlightAware ADS-B
Sat 05:51:31 AM 38.4100 19.3670 110° East 513 590 36,900  Level FlightAware ADS-B
Sat 05:52:03 AM 38.3850 19.4500 111° Southeast 514 592 36,900  Level FlightAware ADS-B
Sat 05:52:43 AM 38.3480 19.5720 111° Southeast 514 592 36,900  Level FlightAware ADS-B
Sat 05:53:15 AM 38.3240 19.6540 110° East 513 590 36,900  Level FlightAware ADS-B
Sat 05:54:01 AM 38.2840 19.7880 111° Southeast 515 593 36,900  Level FlightAware ADS-B
Sat 05:54:33 AM 38.2560 19.8790 111° Southeast 515 593 36,900  Level FlightAware ADS-B
Sat 05:55:25 AM 38.2030 20.0560 111° Southeast 516 594 36,900  Level FlightAware ADS-B
Sat 05:56:04 AM 38.1700 20.1640 111° Southeast 517 595 36,900  Level FlightAware ADS-B
Sat 05:56:58 AM 38.1260 20.3070 111° Southeast 517 595 36,900  Level FlightAware ADS-B
Sat 05:57:28 AM 38.0950 20.4060 112° Southeast 518 596 36,900  Level FlightAware ADS-B
Sat 05:58:10 AM 38.0650 20.5050 111° Southeast 518 596 36,900  Level FlightAware ADS-B
Sat 05:59:03 AM 38.0170 20.6600 111° Southeast 519 597 36,900  Level FlightAware ADS-B
Sat 05:59:39 AM 37.9910 20.7470 111° Southeast 519 597 36,900  Level FlightAware ADS-B
Sat 06:00:15 AM 37.9480 20.8800 112° Southeast 519 597 36,900  Level FlightAware ADS-B
Sat 06:00:56 AM 37.9160 20.9840 111° Southeast 519 597 36,900  Level FlightAware ADS-B
Sat 06:01:31 AM 37.8810 21.0930 112° Southeast 518 596 36,900  Level FlightAware ADS-B
Sat 06:02:12 AM 37.8430 21.2100 112° Southeast 519 597 36,900  Level FlightAware ADS-B
Sat 06:02:42 AM 37.8170 21.2930 112° Southeast 520 598 36,900  Level FlightAware ADS-B
Sat 06:03:19 AM 37.7830 21.3990 112° Southeast 520 598 36,900  Level FlightAware ADS-B
Sat 06:03:54 AM 37.7540 21.4920 111° Southeast 522 601 36,900  Level FlightAware ADS-B
Sat 06:04:25 AM 37.7250 21.5790 113° Southeast 522 601 36,900  Level FlightAware ADS-B
Sat 06:04:58 AM 37.6950 21.6740 112° Southeast 522 601 36,900  Level FlightAware ADS-B
Sat 06:05:39 AM 37.6560 21.7930 112° Southeast 522 601 36,900  Level FlightAware ADS-B
Sat 06:06:17 AM 37.6220 21.8980 112° Southeast 522 601 36,900  Level FlightAware ADS-B
Sat 06:06:48 AM 37.5930 21.9860 113° Southeast 523 602 36,900  Level FlightAware ADS-B
Sat 06:07:21 AM 37.5630 22.0780 112° Southeast 524 603 36,900  Level FlightAware ADS-B
Sat 06:08:01 AM 37.5250 22.1940 112° Southeast 525 604 36,900  Level FlightAware ADS-B
Sat 06:08:36 AM 37.4930 22.2910 113° Southeast 525 604 36,900  Level FlightAware ADS-B
Sat 06:09:10 AM 37.4610 22.3870 113° Southeast 526 605 36,900  Level FlightAware ADS-B
Sat 06:09:44 AM 37.4290 22.4830 113° Southeast 525 604 36,900  Level FlightAware ADS-B
Sat 06:10:20 AM 37.3950 22.5830 113° Southeast 526 605 36,900  Level FlightAware ADS-B
Sat 06:10:52 AM 37.3650 22.6730 113° Southeast 525 604 36,900  Level FlightAware ADS-B
Sat 06:11:31 AM 37.3290 22.7820 113° Southeast 525 604 36,900  Level FlightAware ADS-B
Sat 06:12:03 AM 37.2990 22.8700 113° Southeast 525 604 36,900  Level FlightAware ADS-B
Sat 06:12:40 AM 37.2620 22.9780 113° Southeast 526 605 36,900  Level FlightAware ADS-B
Sat 06:13:13 AM 37.2320 23.0680 113° Southeast 527 606 36,900  Level FlightAware ADS-B
Sat 06:13:50 AM 37.1960 23.1710 114° Southeast 527 606 36,900  Level FlightAware ADS-B
Sat 06:14:26 AM 37.1610 23.2740 113° Southeast 527 606 36,900  Level FlightAware ADS-B
Sat 06:15:01 AM 37.1280 23.3710 113° Southeast 526 605 36,900  Level FlightAware ADS-B
Sat 06:15:33 AM 37.0970 23.4590 114° Southeast 527 606 36,900  Level FlightAware ADS-B
Sat 06:16:06 AM 37.0640 23.5560 113° Southeast 526 605 36,900  Level FlightAware ADS-B
Sat 06:16:47 AM 37.0250 23.6680 114° Southeast 526 605 36,900  Level FlightAware ADS-B
Sat 06:17:19 AM 36.9930 23.7590 114° Southeast 527 606 36,900  Level FlightAware ADS-B
Sat 06:17:57 AM 36.9570 23.8630 113° Southeast 527 606 36,900  Level FlightAware ADS-B
Sat 06:18:31 AM 36.9240 23.9560 114° Southeast 527 606 36,900  Level FlightAware ADS-B
Sat 06:19:06 AM 36.8900 24.0530 114° Southeast 527 606 36,900  Level FlightAware ADS-B
Sat 06:19:38 AM 36.8570 24.1470 114° Southeast 526 605 36,900  Level FlightAware ADS-B
Sat 06:20:16 AM 36.8220 24.2450 114° Southeast 527 606 36,900  Level FlightAware ADS-B
Sat 06:20:48 AM 36.7890 24.3380 114° Southeast 528 608 36,900  Level FlightAware ADS-B
Sat 06:21:24 AM 36.7530 24.4380 114° Southeast 528 608 36,900  Level FlightAware ADS-B
Sat 06:22:00 AM 36.7160 24.5410 114° Southeast 528 608 36,900  Level FlightAware ADS-B
Sat 06:22:36 AM 36.6790 24.6440 114° Southeast 529 609 36,900  Level FlightAware ADS-B
Sat 06:23:08 AM 36.6480 24.7310 114° Southeast 529 609 36,900  Level FlightAware ADS-B
Sat 06:23:44 AM 36.6120 24.8310 114° Southeast 529 609 36,900  Level FlightAware ADS-B
Sat 06:24:20 AM 36.5750 24.9330 114° Southeast 528 608 36,900  Level FlightAware ADS-B
Sat 06:24:52 AM 36.5430 25.0190 115° Southeast 527 606 36,900  Level FlightAware ADS-B
Sat 06:25:30 AM 36.5050 25.1250 114° Southeast 529 609 36,900  Level FlightAware ADS-B
Sat 06:26:06 AM 36.4690 25.2240 114° Southeast 530 610 36,900  Level FlightAware ADS-B
Sat 06:26:38 AM 36.4350 25.3140 115° Southeast 531 611 36,900  Level FlightAware ADS-B
Sat 06:27:12 AM 36.4010 25.4060 115° Southeast 532 612 36,900  Level FlightAware ADS-B
Sat 06:27:50 AM 36.3620 25.5140 114° Southeast 533 613 36,900  Level FlightAware ADS-B
Sat 06:28:24 AM 36.3260 25.6080 115° Southeast 533 613 36,900  Level FlightAware ADS-B
Sat 06:28:58 AM 36.2910 25.7030 115° Southeast 535 616 36,900  Level FlightAware ADS-B
Sat 06:29:35 AM 36.2530 25.8050 115° Southeast 535 616 36,900  Level FlightAware ADS-B
Sat 06:30:11 AM 36.2160 25.9050 115° Southeast 536 617 36,900  Level FlightAware ADS-B
Sat 06:30:47 AM 36.1780 26.0060 115° Southeast 536 617 36,900  Level FlightAware ADS-B
Sat 06:31:19 AM 36.1450 26.0940 115° Southeast 535 616 36,900  Level FlightAware ADS-B
Sat 06:31:55 AM 36.1060 26.1970 115° Southeast 536 617 36,900  Level FlightAware ADS-B
Sat 06:32:31 AM 36.0690 26.2940 115° Southeast 537 618 36,900  Level FlightAware ADS-B
Sat 06:33:03 AM 36.0350 26.3830 115° Southeast 537 618 36,900  Level FlightAware ADS-B
Sat 06:33:39 AM 35.9970 26.4840 115° Southeast 536 617 36,900  Level FlightAware ADS-B
Sat 06:34:11 AM 35.9630 26.5710 116° Southeast 537 618 36,900  Level FlightAware ADS-B
Sat 06:34:49 AM 35.9220 26.6790 115° Southeast 537 618 36,900  Level FlightAware ADS-B
Sat 06:35:45 AM 35.8680 26.8200 115° Southeast 537 618 36,900  Level FlightAware ADS-B
Sat 06:36:21 AM 35.8360 26.9050 115° Southeast 537 618 36,900  Level FlightAware ADS-B
Sat 06:36:57 AM 35.8040 26.9900 115° Southeast 537 618 36,900  Level FlightAware ADS-B
Sat 06:37:32 AM 35.7480 27.1280 117° Southeast 538 619 36,900  Level FlightAware ADS-B
Sat 06:38:08 AM 35.7090 27.2290 115° Southeast 537 618 36,900  Level FlightAware ADS-B
Sat 06:38:40 AM 35.6760 27.3140 116° Southeast 536 617 36,900  Level FlightAware ADS-B
Sat 06:39:17 AM 35.6360 27.4140 116° Southeast 536 617 36,900  Level FlightAware ADS-B
Sat 06:39:52 AM 35.5980 27.5130 115° Southeast 536 617 36,900  Level FlightAware ADS-B
Sat 06:40:24 AM 35.5640 27.5980 116° Southeast 535 616 36,900  Level FlightAware ADS-B
Sat 06:41:00 AM 35.5240 27.6990 116° Southeast 535 616 36,900  Level FlightAware ADS-B
Sat 06:41:36 AM 35.4850 27.7980 116° Southeast 534 615 36,900  Level FlightAware ADS-B
Sat 06:42:12 AM 35.4470 27.8940 116° Southeast 534 615 36,900  Level FlightAware ADS-B
Sat 06:42:40 AM 35.4180 27.9670 116° Southeast 534 615 36,900  Level FlightAware ADS-B
Sat 06:43:22 AM 35.3700 28.0860 116° Southeast 535 616 36,900  Level FlightAware ADS-B
Sat 06:43:54 AM 35.3350 28.1730 116° Southeast 535 616 36,900  Level FlightAware ADS-B
Sat 06:44:35 AM 35.2960 28.2710 116° Southeast 535 616 36,900  Level FlightAware ADS-B
Sat 06:45:14 AM 35.2480 28.3890 116° Southeast 535 616 36,900  Level FlightAware ADS-B
Sat 06:45:44 AM 35.2160 28.4680 116° Southeast 535 616 36,900  Level FlightAware ADS-B
Sat 06:46:20 AM 35.1770 28.5630 117° Southeast 532 612 36,900  Level FlightAware ADS-B
Sat 06:46:54 AM 35.1370 28.6630 116° Southeast 536 617 36,900  Level FlightAware ADS-B
Sat 06:47:33 AM 35.1010 28.7530 116° Southeast 536 617 36,900  Level FlightAware ADS-B
Sat 06:48:25 AM 35.0420 28.8980 116° Southeast 536 617 36,900  Level FlightAware ADS-B
Sat 06:48:56 AM 35.0030 28.9910 117° Southeast 535 616 36,900  Level FlightAware ADS-B
Sat 06:49:49 AM 34.9510 29.1180 117° Southeast 535 616 36,900  Level FlightAware ADS-B
Sat 06:50:28 AM 34.9000 29.2400 117° Southeast 535 616 36,900  Level FlightAware ADS-B
Sat 06:51:17 AM 34.8530 29.3550 116° Southeast 534 615 36,900  Level FlightAware ADS-B
Sat 06:51:52 AM 34.8070 29.4660 117° Southeast 535 616 36,900  Level FlightAware ADS-B
Sat 06:52:38 AM 34.7590 29.5800 117° Southeast 535 616 36,900  Level FlightAware ADS-B
Sat 06:53:14 AM 34.7200 29.6730 117° Southeast 535 616 36,900  Level FlightAware ADS-B
Sat 06:53:50 AM 34.6780 29.7730 117° Southeast 537 618 36,900  Level FlightAware ADS-B
Sat 06:54:26 AM 34.6370 29.8710 117° Southeast 538 619 36,900  Level FlightAware ADS-B
Sat 06:55:04 AM 34.6020 29.9590 116° Southeast 538 619 36,900  Level FlightAware ADS-B
Sat 06:55:40 AM 34.5680 30.0420 116° Southeast 538 619 36,900  Level FlightAware ADS-B
Sat 06:56:17 AM 34.5010 30.1710 122° Southeast 533 613 36,900  Level FlightAware ADS-B
Sat 06:56:53 AM 34.4610 30.2540 120° Southeast 533 613 36,900  Level FlightAware ADS-B
Sat 06:57:28 AM 34.4130 30.3550 120° Southeast 535 616 36,900  Level FlightAware ADS-B
Sat 06:57:59 AM 34.3740 30.4360 120° Southeast 535 616 36,900  Level FlightAware ADS-B
Sat 06:58:39 AM 34.3240 30.5420 120° Southeast 539 620 36,900  Level FlightAware ADS-B
Sat 06:59:14 AM 34.2830 30.6270 120° Southeast 539 620 36,900  Level FlightAware ADS-B
Sat 06:59:44 AM 34.2460 30.7040 120° Southeast 541 623 36,900  Level FlightAware ADS-B
Sat 07:00:22 AM 34.2010 30.7970 120° Southeast 540 621 36,900  Level FlightAware ADS-B
Sat 07:00:54 AM 34.1540 30.8930 121° Southeast 539 620 36,900  Level FlightAware ADS-B
Sat 07:01:34 AM 34.1030 30.9980 120° Southeast 537 618 36,900  Level FlightAware ADS-B
Sat 07:02:10 AM 34.0590 31.0890 120° Southeast 535 616 36,900  Level FlightAware ADS-B
Sat 07:02:41 AM 34.0220 31.1650 120° Southeast 534 615 36,900  Level FlightAware ADS-B
Sat 07:03:16 AM 33.9750 31.2600 121° Southeast 529 609 36,900  Level FlightAware ADS-B
Sat 07:03:52 AM 33.9320 31.3490 120° Southeast 534 615 36,900  Level FlightAware ADS-B
Sat 07:04:26 AM 33.8880 31.4390 120° Southeast 531 611 36,900  Level FlightAware ADS-B
Sat 07:05:00 AM 33.8450 31.5270 120° Southeast 536 617 36,900  Level FlightAware ADS-B
Sat 07:05:37 AM 33.7980 31.6210 121° Southeast 536 617 36,900  Level FlightAware ADS-B
Sat 07:06:13 AM 33.7550 31.7090 120° Southeast 537 618 36,900  Level FlightAware ADS-B
Sat 07:06:43 AM 33.7140 31.7910 121° Southeast 538 619 36,900  Level FlightAware ADS-B
Sat 07:07:18 AM 33.6690 31.8800 121° Southeast 539 620 36,900  Level FlightAware ADS-B
Sat 07:07:53 AM 33.6260 31.9670 121° Southeast 539 620 36,900  Level FlightAware ADS-B
Sat 07:08:34 AM 33.5740 32.0710 121° Southeast 539 620 36,900  Level FlightAware ADS-B
Sat 07:09:04 AM 33.5350 32.1500 121° Southeast 539 620 36,900  Level FlightAware ADS-B
Sat 07:09:39 AM 33.4890 32.2420 121° Southeast 540 621 36,900 -254 Level FlightAware ADS-B
Sat 07:10:15 AM 33.4430 32.3320 121° Southeast 536 617 36,600 -709 Descending FlightAware ADS-B
Sat 07:11:29 AM 33.3550 32.5080 121° Southeast 538 619 35,600 -971 Descending FlightAware ADS-B
Sat 07:12:00 AM 33.3080 32.6000 121° Southeast 529 609 34,900 -1,068 Descending FlightAware ADS-B
Sat 07:12:42 AM 33.2570 32.7010 121° Southeast 521 600 34,300 -1,421 Descending FlightAware ADS-B
Sat 07:13:16 AM 33.2130 32.7870 121° Southeast 512 589 33,100 -2,127 Descending FlightAware ADS-B
Sat 07:14:01 AM 33.1580 32.8950 121° Southeast 498 573 31,500 -2,194 Descending FlightAware ADS-B
Sat 07:14:49 AM 33.1000 33.0080 121° Southeast 487 560 29,700 -2,241 Descending FlightAware ADS-B
Sat 07:15:24 AM 33.0600 33.0850 122° Southeast 476 548 28,400 -2,000 Descending FlightAware ADS-B
Sat 07:16:01 AM 33.0150 33.1620 125° Southeast 458 527 27,300 -1,944 Descending FlightAware ADS-B
Sat 07:16:35 AM 32.9740 33.2310 125° Southeast 446 513 26,100 -1,024 Descending FlightAware ADS-B
Sat 07:17:23 AM 32.9240 33.3150 125° Southeast 446 513 25,900 -1,807 Descending FlightAware ADS-B
Sat 07:17:58 AM 32.8790 33.3930 124° Southeast 412 474 23,600 -2,824 Descending FlightAware ADS-B
Sat 07:18:31 AM 32.8440 33.4530 125° Southeast 399 459 22,700 -1,667 Descending FlightAware ADS-B
Sat 07:19:10 AM 32.8040 33.5230 124° Southeast 386 444 21,600 -1,680 Descending FlightAware ADS-B
Sat 07:19:46 AM 32.7670 33.5860 125° Southeast 389 448 20,600 -1,676 Descending FlightAware ADS-B
Sat 07:20:18 AM 32.7330 33.6430 125° Southeast 394 453 19,700 -1,588 Descending FlightAware ADS-B
Sat 07:20:54 AM 32.6990 33.7010 125° Southeast 382 440 18,800 -1,583 Descending FlightAware ADS-B
Sat 07:21:30 AM 32.6600 33.7680 125° Southeast 370 426 17,800 -1,583 Descending FlightAware ADS-B
Sat 07:22:06 AM 32.6250 33.8270 125° Southeast 360 414 16,900 -1,500 Descending FlightAware ADS-B
Sat 07:22:38 AM 32.5950 33.8770 125° Southeast 370 426 16,100 -1,588 Descending FlightAware ADS-B
Sat 07:23:14 AM 32.5590 33.9390 125° Southeast 366 421 15,100 -1,636 Descending FlightAware ADS-B
Sat 07:23:44 AM 32.5300 33.9880 125° Southeast 356 410 14,300 -1,500 Descending FlightAware ADS-B
Sat 07:24:22 AM 32.4940 34.0480 125° Southeast 345 397 13,400 -1,378 Descending FlightAware ADS-B
Sat 07:24:58 AM 32.4630 34.1000 125° Southeast 337 388 12,600 -1,500 Descending FlightAware ADS-B
Sat 07:25:34 AM 32.4290 34.1560 126° Southeast 320 368 11,600 -1,391 Descending FlightAware ADS-B
Sat 07:26:07 AM 32.4020 34.2010 125° Southeast 305 351 11,000 -1,200 Descending FlightAware ADS-B
Sat 07:26:39 AM 32.3760 34.2440 126° Southeast 300 345 10,300 -1,358 Descending FlightAware ADS-B
Sat 07:27:00 AM 32.3600 34.2730 123° Southeast 297 342 9,800 -621 Descending FlightAware ADS-B
Sat 07:27:37 AM 32.3340 34.3150 126° Southeast 295 339 9,700 -98 Descending FlightAware ADS-B
Sat 07:28:01 AM 32.3180 34.3420 125° Southeast 295 339 9,700  Level FlightAware ADS-B
Sat 07:28:27 AM 32.3010 34.3720 124° Southeast 295 339 9,700  Level FlightAware ADS-B
Sat 07:28:51 AM 32.2850 34.3990 125° Southeast 295 339 9,700 -996 Level FlightAware ADS-B
Sat 07:31:00 AM 32.0892 34.6903 125° Southeast  Level FlightAware Approximate
Sat 07:32:00 AM 32.0161 34.8398 125° Southeast  Level FlightAware Approximate
Sat 07:32:43 AM 32.1210 34.6970 125° Southeast 5,000  Level FlightAware ADS-B
Sat 07:33:10 AM 32.1020 34.7310 123° Southeast 267 307 5,000  Level FlightAware ADS-B
Sat 07:33:28 AM 32.0910 34.7510 123° Southeast 268 308 5,000 -125 Level FlightAware ADS-B
Sat 07:33:58 AM 32.0700 34.7800 131° Southeast 240 276 4,900 -511 Descending FlightAware ADS-B
Sat 07:34:15 AM 32.0540 34.7980 136° Southeast 234 269 4,600 -400 Descending FlightAware ADS-B
Sat 07:34:43 AM 32.0360 34.8190 135° Southeast 234 269 4,600 -411 Level FlightAware ADS-B
Sat 07:35:28 AM 32.0540 34.7980 315° West 213 245 4,100 -873 Descending FlightAware ADS-B
Sat 07:35:38 AM 31.9970 34.8630 136° Southeast 189 217 3,800 -1,886 Descending FlightAware ADS-B
Sat 07:36:03 AM 31.9950 34.8900 95° East 195 224 3,000 -964 Descending FlightAware ADS-B
Sat 07:36:34 AM 31.9990 34.9150 125° Southeast 195 224 2,900 -194 Descending FlightAware ADS-B
Sat 07:36:34 AM 31.9990 34.9150 79° East 195 224 2,900  Level FlightAware ADS-B
Sat 07:39:00 AM 32.0000 34.8667 125° Southeast  Level FlightAware Approximate

Login

Don't have an account? Register now (free) for customized features, flight alerts, and more!